Timeline UpdatesTrip UpdatesNews PostsPvt PostsTravel TipsAdmin PostsConv PostsFollowed PostsChat RequestsBlog PostsPNR Posts

Disclaimer
Search
 
 
Tue Sep 2, 2014 02:28:34 ISTHomeTrainsΣChainsAtlasPNRForumGalleryNewsFAQTripsMembersLoginFeedback
No Recent News for this Train
Other Trains in the News **new
Latest...
running with Inspection Car is of NR [0611/A]; since 2 weeks
Wed Jul 23, 2014 (11:12AM)
⇐ Return Journey: Train# 13483

13484/Farakka Express (via Faizabad)

Time-Table HAS CHANGED.
Yesterday (11:26PM)
Change Departure Station:
Change Arrival Station:
Post a Train Travel TipPost a Train Travel Tip **new
Post a Comment/Question/Picture/VideoPost a Comment/Question/Picture/Video
Pantry/Catering
✓ Pantry Car Avbl
✓ Catering Avbl
RSA - Rake Sharing
13413/13414/04031/04032
Rake/Coach Composition
LOCO-SLR-UR-UR-S9-S8-S7-S6-S5-S4-S3-S2-S1-PC-B1-A1-UR-UR-UR-UR-UR-SLR-HPCV http://indiarailinfo.com/blog/post/1168926 by manu
Loco
DLI - LKO -> GZB[NR] WAP-5/7; LKO - MLDT ->...
Read more...
LKO[NR] WDM-3D/3A
News    PNR    Forum    Time-Table    Availability    Fare Chart    Map    Arr/Dep History    Trips    Gallery    ΣChains    X/O    Timeline    
Travel Time: 10h 28m    19 halts    Distance: 404 km    Avg Speed: 38 km/hr
Type: Mail/Express
Zone: ER/Eastern
Departs @ 20:52
Platform# 2
 M W FS
Patna Junction/PNBE 
Arrives @ 07:20 +1 night
Platform# ???
S T T S
Malda Town/MLDT 

19 halts. 93 intermediate Stations between Patna Junction and Malda Town

Show ALL intermediate Stations  Show Old Time-Table

#CodeStation NameX/OArrivesAvgDepartsAvgHaltPFDay#KmSpeedElevZoneAddress
1DLIOld Delhi Junction (16)  -21:50 21:45-71-1058.831219mNRNear Chandni Chowk Metro Station, Delhi NCT
2GZBGhaziabad Junction (6)  22:26 22:24-22:28 22:26-2m21-1038.878217mNRGhaziabad, Uttar Pradesh
3KRJKhurja Junction (4)  23:25 23:14-23:28 23:17-3m--1-976.159199mNCRBulandshahr, Uttar Pradesh
4ALJNAligarh Junction (4)  00:30 00:01-00:35 00:06-5m22-932.637192mNCRAligarh, Uttar Pradesh
5HRSHathras Junction (3)XO  00:56 00:55-01:01 01:00-5m--2-902.464183mNCRMahamaya Nagar(05722-242803), Uttar Pradesh
6TDLTundla Junction (5)X  01:50 01:45-01:58 01:53-8m32-854.555167mNCRDistt.Firozabad, Uttar Pradesh
7FZDFirozabad (4)X  02:18 02:11-02:20 02:13-2m22-837.960164mNCRFirozabad, Uttar Pradesh
8SKBShikohabad Junction (4)X  02:39 02:33-02:41 02:35-2m22-818.085166mNCRDistrict Firozabad, Uttar Pradesh
9ETWEtawah (5)X  03:20 03:14-03:22 03:16-2m32-762.662154mNCRDistt. Etawah, Uttar Pradesh
10CNBKanpur Central (10)X  05:30-05:45-15m72-623.347128mNCRKANPUR-208 001, Uttar Pradesh
11ONUnnao Junction (5)X  06:06 06:07-06:08 06:09-2m--2-605.946129mNRUnnao, Uttar Pradesh
12LKOLucknow Charbagh (9)X  07:20-07:45-25m--2-551.349123mNR226004, Uttar Pradesh
13BBKBarabanki Junction (4)  08:20-08:22-2m--2-522.853122mNRPin-225001, Uttar Pradesh
14DYDDaryabad  09:06 09:05-09:07-1 2m--2-484.773116mNRFaizabad Rd, Uttar Pradesh
15RDLRudauli (2)  09:27 09:26-09:28-1 2m--2-461.676112mNRRudauli, Uttar Pradesh
16SLWSohwal  09:47 09:46-09:48-1 2m--2-438.842107mNRFaizabad Rd, Uttar Pradesh
17FDFaizabad Junction (5)X  10:10-10:15-5m--2-423.514104mNRFaizabad, Uttar Pradesh
18ACNDAcharya Narendra Dev Nagar  10:25 10:24-10:26-1 2m--2-421.313104mNRFaizabad, Uttar Pradesh
19AYAyodhya Junction (3)X  10:48 10:47-10:49-1 2m12-416.86898mNRAyodhya, Uttar Pradesh
20GGJGoshainGanj (3)  11:18 11:17-11:19-1 2m--2-385.17498mNRGoshainganj, Uttar Pradesh
21ABPAkbarpur (2)  11:37-11:39-2m--2-362.97692mNRAkbarpur, Uttar Pradesh
22MLPRMalipur (2)  11:55 11:54-11:56-1 2m--2-343.86292mNRMalipur, Uttar Pradesh
23SHGShahganj Junction (4)  12:20-12:25 12:27-5 7m--2-318.85390mNRShahganj, Uttar Pradesh
24JNUJaunpur Junction (5)X  13:05-13:07-2m12-285.52483mNRJaunpur, Uttar Pradesh
25ZBDZafarabad Junction (4)X  13:24 13:23-13:25-1 2m--2-279.03883mNRNational Highway 56, Uttar Pradesh
26JLLJalalGanj (2)  13:45 13:44-13:46-1 2m--2-267.03487mNRJalalganj Railway Station, Uttar Pradesh
27BSBVaranasi Junction (9)X  15:00 14:55-15:15-15 20m82-227.81882mNRVaranasi 221002, Uttar Pradesh
28MGSMughal Sarai Junction (8)  16:10-16:25-15m--2-211.47483mECRMughalsarai 232101, Uttar Pradesh
29ZNAZamania (2)  17:01-17:03-2m--2-167.16777mECRGhazipur, Uttar Pradesh
30DLNDildarnagar Junction (2)  17:15-17:17-2m--2-153.65272mECRDildarnagar, Uttar Pradesh
31BWHBhadaura (2)17:26-17:28-2m--2-145.86169mECRGhazipur, Uttar Pradesh
32GMRGahmar (2)X  17:36-17:38-2m--2-137.67968mECRDistt: Ghazipur, Uttar Pradesh
33CSAChausa (2)  17:45-17:47-2m--2-128.46068mECRState Highway 14, Bihar
34BXRBuxar (3)X  17:58-18:03-5m--2-117.48967mECRBuxar, Bihar
35DUREDumraon (3)  18:14-18:16-2m--2-101.18070mECRDumraon, Bihar
36RPRRaghunathpur (4)  18:28-18:30-2m--2-85.17469mECRRaghunathpur, Bihar
37BEABihiya (3)  18:42-18:44-2m--2-70.47167mECRBehea, Bihar
38ARAAra Junction (3)X  19:02-19:07-5m--2-48.98963mECRarrah( 06182-233411), Bihar
39BTABihta (2)X  19:22-19:24-2m--2-26.73462mECRDistt: Patna, Bihar
40DNRDanapur (5)X  19:55-20:05-10m--2-9.41558mECRKhagaul, Bihar
41PNBE»Patna Junction (10)»X  20:42-20:52-10m220.02257mECRPatna 800001, Bihar
42RJPBRajendra Nagar Bihar (4)  20:59-21:01-2m--22.63455mECRPatna 800001, Bihar
43PNCPatna Saheb (3)X  21:14-21:16-2m--29.94159mECRPatna, Bihar
44FUTFatwa (6)  21:34-21:36-2m--222.15553mECRPatna, Bihar
45BKPBakhtiyarpur Junction (5)XO  22:01-22:05-4m--245.13851mECRPatna, Bihar
46BARHBarh (3)  22:34-22:36-2m--263.47149mECRBarh, Bihar
47MKAMokama Junction (4)  22:58-23:03-5m--289.37148mECRPatna, Bihar
48BRYABarhiya (3)  23:18-23:20-2m--2107.02247mECRBarahiya, Bihar
49KIULKiul Junction (5)  00:05-00:10-5m--3123.46053mECRDist. Lakhisarai, Bihar
50JMPJamalpur Junction (4)  00:55-01:05-10m13168.36159mERJamalpur 06344-243101, Bihar
51BUPBariarpur (3)  01:16-01:18-2m--3179.45442mERMunger, Bihar
52SGGSultanGanj (3)  01:38-01:40-2m--3197.34742mERSultanganj, Bihar
53BGPBhagalpur Junction (6)  02:12-02:22-10m--3222.35749mERBhagalpur, Bihar
54SBOSabaur (3)  02:30-02:32-2m--3229.86142mERSabour, Bihar
55CLGKahalgaon (2)  02:54-02:56-2m13252.43744mERBhagalpur, Bihar
56PPTPirpainti (2)  03:29-03:31-2m--3272.72653mERBhagalpur, Bihar
57SBGSahibganj Junction (3)X  04:25-04:33-8m13296.28138mERSahibganj, Jharkhand
58TPHTinpahar Junction (3)X  05:00 05:01-05:02 05:03-2m23334.03545mERBamangawan, Jharkhand
59BHWBarharwa Junction (3)  05:32-05:36-4m23350.74036mERBarharwa, Jharkhand
60NFKNew Farakka Junction (3)X  06:03-06:08-5m23368.72932mERDist - Murshidabad, West Bengal
61MLDT•Malda Town (5)•  07:20----3403.8-30mERDist - Malda, West Bengal
Scroll to Top
Scroll to Bottom